sensor_id;sensor_type;location;lat;lon;timestamp;P1;durP1;ratioP1;P2;durP2;ratioP2
67768;SDS011;54569;52.018;5.584;2022-09-03T00:04:41;2.47;;;1.60;;
67768;SDS011;54569;52.018;5.584;2022-09-03T00:07:21;2.67;;;1.38;;
67768;SDS011;54569;52.018;5.584;2022-09-03T00:09:58;2.13;;;1.35;;
67768;SDS011;54569;52.018;5.584;2022-09-03T00:12:31;2.40;;;1.60;;
67768;SDS011;54569;52.018;5.584;2022-09-03T00:15:05;1.42;;;1.33;;
67768;SDS011;54569;52.018;5.584;2022-09-03T00:17:43;1.73;;;1.35;;
67768;SDS011;54569;52.018;5.584;2022-09-03T00:20:38;1.50;;;1.40;;
67768;SDS011;54569;52.018;5.584;2022-09-03T00:23:10;1.70;;;1.50;;
67768;SDS011;54569;52.018;5.584;2022-09-03T00:28:32;2.35;;;1.27;;
67768;SDS011;54569;52.018;5.584;2022-09-03T00:31:12;3.47;;;1.50;;
67768;SDS011;54569;52.018;5.584;2022-09-03T00:33:46;3.88;;;1.50;;
67768;SDS011;54569;52.018;5.584;2022-09-03T00:36:17;4.13;;;1.63;;
67768;SDS011;54569;52.018;5.584;2022-09-03T00:38:49;1.88;;;1.45;;
67768;SDS011;54569;52.018;5.584;2022-09-03T00:50:02;1.95;;;1.38;;
67768;SDS011;54569;52.018;5.584;2022-09-03T00:52:59;3.35;;;1.50;;
67768;SDS011;54569;52.018;5.584;2022-09-03T00:59:14;3.10;;;1.60;;
67768;SDS011;54569;52.018;5.584;2022-09-03T01:07:55;1.50;;;1.40;;
67768;SDS011;54569;52.018;5.584;2022-09-03T01:11:02;1.70;;;1.60;;
67768;SDS011;54569;52.018;5.584;2022-09-03T01:14:02;2.55;;;1.60;;
67768;SDS011;54569;52.018;5.584;2022-09-03T01:19:32;1.60;;;1.35;;
67768;SDS011;54569;52.018;5.584;2022-09-03T01:24:45;2.53;;;1.55;;
67768;SDS011;54569;52.018;5.584;2022-09-03T01:27:29;4.53;;;1.58;;
67768;SDS011;54569;52.018;5.584;2022-09-03T01:30:08;2.00;;;1.50;;
67768;SDS011;54569;52.018;5.584;2022-09-03T01:35:44;2.53;;;1.38;;
67768;SDS011;54569;52.018;5.584;2022-09-03T01:38:40;4.25;;;1.50;;
67768;SDS011;54569;52.018;5.584;2022-09-03T01:41:14;2.47;;;1.55;;
67768;SDS011;54569;52.018;5.584;2022-09-03T01:50:06;4.80;;;1.23;;
67768;SDS011;54569;52.018;5.584;2022-09-03T01:58:01;2.60;;;1.30;;
67768;SDS011;54569;52.018;5.584;2022-09-03T02:00:33;1.45;;;1.30;;
67768;SDS011;54569;52.018;5.584;2022-09-03T02:03:03;2.35;;;1.30;;
67768;SDS011;54569;52.018;5.584;2022-09-03T02:05:31;3.55;;;1.60;;
67768;SDS011;54569;52.018;5.584;2022-09-03T02:10:40;2.27;;;1.40;;
67768;SDS011;54569;52.018;5.584;2022-09-03T02:13:14;1.40;;;1.30;;
67768;SDS011;54569;52.018;5.584;2022-09-03T02:15:45;1.58;;;1.42;;
67768;SDS011;54569;52.018;5.584;2022-09-03T02:18:18;3.45;;;1.52;;
67768;SDS011;54569;52.018;5.584;2022-09-03T02:21:05;2.45;;;1.70;;
67768;SDS011;54569;52.018;5.584;2022-09-03T02:23:32;2.65;;;1.70;;
67768;SDS011;54569;52.018;5.584;2022-09-03T02:26:01;3.30;;;1.80;;
67768;SDS011;54569;52.018;5.584;2022-09-03T02:28:28;3.85;;;1.52;;
67768;SDS011;54569;52.018;5.584;2022-09-03T02:30:55;2.50;;;1.85;;
67768;SDS011;54569;52.018;5.584;2022-09-03T02:33:21;2.30;;;1.50;;
67768;SDS011;54569;52.018;5.584;2022-09-03T02:35:47;1.77;;;1.50;;
67768;SDS011;54569;52.018;5.584;2022-09-03T02:38:14;2.08;;;1.85;;
67768;SDS011;54569;52.018;5.584;2022-09-03T02:40:42;5.32;;;1.60;;
67768;SDS011;54569;52.018;5.584;2022-09-03T02:43:10;2.85;;;1.58;;
67768;SDS011;54569;52.018;5.584;2022-09-03T02:45:43;1.95;;;1.58;;
67768;SDS011;54569;52.018;5.584;2022-09-03T02:48:11;3.55;;;1.40;;
67768;SDS011;54569;52.018;5.584;2022-09-03T02:50:41;2.13;;;1.50;;
67768;SDS011;54569;52.018;5.584;2022-09-03T02:53:07;1.60;;;1.50;;
67768;SDS011;54569;52.018;5.584;2022-09-03T02:55:34;1.40;;;1.30;;
67768;SDS011;54569;52.018;5.584;2022-09-03T02:57:59;2.17;;;1.45;;
67768;SDS011;54569;52.018;5.584;2022-09-03T03:00:25;2.42;;;1.45;;
67768;SDS011;54569;52.018;5.584;2022-09-03T03:02:54;2.70;;;1.50;;
67768;SDS011;54569;52.018;5.584;2022-09-03T03:05:29;3.42;;;1.50;;
67768;SDS011;54569;52.018;5.584;2022-09-03T03:08:07;1.80;;;1.42;;
67768;SDS011;54569;52.018;5.584;2022-09-03T03:10:33;1.83;;;1.45;;
67768;SDS011;54569;52.018;5.584;2022-09-03T03:12:59;1.52;;;1.35;;
67768;SDS011;54569;52.018;5.584;2022-09-03T03:15:25;1.63;;;1.40;;
67768;SDS011;54569;52.018;5.584;2022-09-03T03:17:54;2.33;;;1.48;;
67768;SDS011;54569;52.018;5.584;2022-09-03T03:20:21;2.55;;;1.42;;
67768;SDS011;54569;52.018;5.584;2022-09-03T03:22:47;3.03;;;1.60;;
67768;SDS011;54569;52.018;5.584;2022-09-03T03:25:12;2.70;;;1.40;;
67768;SDS011;54569;52.018;5.584;2022-09-03T03:27:38;1.40;;;1.27;;
67768;SDS011;54569;52.018;5.584;2022-09-03T03:30:06;1.42;;;1.33;;
67768;SDS011;54569;52.018;5.584;2022-09-03T03:32:34;4.40;;;1.48;;
67768;SDS011;54569;52.018;5.584;2022-09-03T03:35:01;3.97;;;1.35;;
67768;SDS011;54569;52.018;5.584;2022-09-03T03:37:28;2.53;;;1.55;;
67768;SDS011;54569;52.018;5.584;2022-09-03T03:39:54;2.25;;;1.58;;
67768;SDS011;54569;52.018;5.584;2022-09-03T03:42:19;4.90;;;1.50;;
67768;SDS011;54569;52.018;5.584;2022-09-03T03:44:45;1.40;;;1.30;;
67768;SDS011;54569;52.018;5.584;2022-09-03T03:47:11;1.52;;;1.40;;
67768;SDS011;54569;52.018;5.584;2022-09-03T03:49:36;2.95;;;1.70;;
67768;SDS011;54569;52.018;5.584;2022-09-03T03:52:03;4.63;;;1.42;;
67768;SDS011;54569;52.018;5.584;2022-09-03T03:54:28;1.48;;;1.38;;
67768;SDS011;54569;52.018;5.584;2022-09-03T03:56:55;2.40;;;1.40;;
67768;SDS011;54569;52.018;5.584;2022-09-03T03:59:21;1.63;;;1.45;;
67768;SDS011;54569;52.018;5.584;2022-09-03T04:01:46;1.58;;;1.42;;
67768;SDS011;54569;52.018;5.584;2022-09-03T04:04:14;1.65;;;1.55;;
67768;SDS011;54569;52.018;5.584;2022-09-03T04:06:40;2.22;;;1.70;;
67768;SDS011;54569;52.018;5.584;2022-09-03T04:09:05;2.03;;;1.60;;
67768;SDS011;54569;52.018;5.584;2022-09-03T04:11:31;1.88;;;1.20;;
67768;SDS011;54569;52.018;5.584;2022-09-03T04:13:56;2.03;;;1.48;;
67768;SDS011;54569;52.018;5.584;2022-09-03T04:16:23;2.35;;;1.50;;
67768;SDS011;54569;52.018;5.584;2022-09-03T04:18:51;2.13;;;1.27;;
67768;SDS011;54569;52.018;5.584;2022-09-03T04:21:19;2.03;;;1.55;;
67768;SDS011;54569;52.018;5.584;2022-09-03T04:23:47;1.50;;;1.40;;
67768;SDS011;54569;52.018;5.584;2022-09-03T04:26:15;2.17;;;1.75;;
67768;SDS011;54569;52.018;5.584;2022-09-03T04:28:42;1.80;;;1.40;;
67768;SDS011;54569;52.018;5.584;2022-09-03T04:31:10;2.60;;;1.50;;
67768;SDS011;54569;52.018;5.584;2022-09-03T04:33:37;3.33;;;1.65;;
67768;SDS011;54569;52.018;5.584;2022-09-03T04:36:03;1.55;;;1.45;;
67768;SDS011;54569;52.018;5.584;2022-09-03T04:38:31;2.88;;;1.50;;
67768;SDS011;54569;52.018;5.584;2022-09-03T04:40:57;2.28;;;1.33;;
67768;SDS011;54569;52.018;5.584;2022-09-03T04:43:24;1.70;;;1.50;;
67768;SDS011;54569;52.018;5.584;2022-09-03T04:45:51;2.15;;;1.42;;
67768;SDS011;54569;52.018;5.584;2022-09-03T04:48:20;1.75;;;1.42;;
67768;SDS011;54569;52.018;5.584;2022-09-03T04:50:46;3.53;;;1.50;;
67768;SDS011;54569;52.018;5.584;2022-09-03T04:53:12;1.60;;;1.50;;
67768;SDS011;54569;52.018;5.584;2022-09-03T04:55:37;1.80;;;1.48;;
67768;SDS011;54569;52.018;5.584;2022-09-03T04:58:03;3.28;;;1.80;;
67768;SDS011;54569;52.018;5.584;2022-09-03T05:00:31;2.45;;;1.40;;
67768;SDS011;54569;52.018;5.584;2022-09-03T05:03:00;1.85;;;1.48;;
67768;SDS011;54569;52.018;5.584;2022-09-03T05:05:26;1.63;;;1.52;;
67768;SDS011;54569;52.018;5.584;2022-09-03T05:07:51;5.28;;;1.45;;
67768;SDS011;54569;52.018;5.584;2022-09-03T05:10:17;2.40;;;1.50;;
67768;SDS011;54569;52.018;5.584;2022-09-03T05:12:46;3.75;;;1.30;;
67768;SDS011;54569;52.018;5.584;2022-09-03T05:15:21;1.40;;;1.30;;
67768;SDS011;54569;52.018;5.584;2022-09-03T05:17:47;2.95;;;1.83;;
67768;SDS011;54569;52.018;5.584;2022-09-03T05:20:12;2.35;;;1.33;;
67768;SDS011;54569;52.018;5.584;2022-09-03T05:22:39;3.97;;;1.40;;
67768;SDS011;54569;52.018;5.584;2022-09-03T05:25:04;4.53;;;1.60;;
67768;SDS011;54569;52.018;5.584;2022-09-03T05:27:30;4.78;;;1.70;;
67768;SDS011;54569;52.018;5.584;2022-09-03T05:29:56;2.25;;;1.25;;
67768;SDS011;54569;52.018;5.584;2022-09-03T05:32:22;1.60;;;1.50;;
67768;SDS011;54569;52.018;5.584;2022-09-03T05:34:49;3.22;;;1.67;;
67768;SDS011;54569;52.018;5.584;2022-09-03T05:37:15;1.90;;;1.52;;
67768;SDS011;54569;52.018;5.584;2022-09-03T05:39:40;3.35;;;1.65;;
67768;SDS011;54569;52.018;5.584;2022-09-03T05:42:06;1.77;;;1.25;;
67768;SDS011;54569;52.018;5.584;2022-09-03T05:44:32;4.30;;;1.38;;
67768;SDS011;54569;52.018;5.584;2022-09-03T05:46:57;3.55;;;1.48;;
67768;SDS011;54569;52.018;5.584;2022-09-03T05:49:24;2.65;;;1.38;;
67768;SDS011;54569;52.018;5.584;2022-09-03T05:51:49;2.15;;;1.40;;
67768;SDS011;54569;52.018;5.584;2022-09-03T05:54:15;2.00;;;1.17;;
67768;SDS011;54569;52.018;5.584;2022-09-03T05:56:41;2.55;;;1.20;;
67768;SDS011;54569;52.018;5.584;2022-09-03T05:59:07;2.58;;;1.40;;
67768;SDS011;54569;52.018;5.584;2022-09-03T06:01:37;3.00;;;1.48;;
67768;SDS011;54569;52.018;5.584;2022-09-03T06:04:09;2.25;;;1.27;;
67768;SDS011;54569;52.018;5.584;2022-09-03T06:06:37;1.38;;;1.27;;
67768;SDS011;54569;52.018;5.584;2022-09-03T06:09:05;4.10;;;1.20;;
67768;SDS011;54569;52.018;5.584;2022-09-03T06:11:32;3.53;;;1.13;;
67768;SDS011;54569;52.018;5.584;2022-09-03T06:14:00;1.50;;;1.40;;
67768;SDS011;54569;52.018;5.584;2022-09-03T06:16:29;2.85;;;1.38;;
67768;SDS011;54569;52.018;5.584;2022-09-03T06:18:56;1.48;;;1.00;;
67768;SDS011;54569;52.018;5.584;2022-09-03T06:21:23;1.40;;;1.30;;
67768;SDS011;54569;52.018;5.584;2022-09-03T06:23:49;2.28;;;1.27;;
67768;SDS011;54569;52.018;5.584;2022-09-03T06:26:16;4.10;;;1.20;;
67768;SDS011;54569;52.018;5.584;2022-09-03T06:28:42;2.25;;;1.52;;
67768;SDS011;54569;52.018;5.584;2022-09-03T06:31:09;3.22;;;1.15;;
67768;SDS011;54569;52.018;5.584;2022-09-03T06:33:37;1.55;;;1.42;;
67768;SDS011;54569;52.018;5.584;2022-09-03T06:36:05;4.47;;;1.30;;
67768;SDS011;54569;52.018;5.584;2022-09-03T06:38:35;2.22;;;1.20;;
67768;SDS011;54569;52.018;5.584;2022-09-03T06:41:20;2.08;;;1.40;;
67768;SDS011;54569;52.018;5.584;2022-09-03T06:43:58;3.90;;;1.40;;
67768;SDS011;54569;52.018;5.584;2022-09-03T06:46:27;2.05;;;1.23;;
67768;SDS011;54569;52.018;5.584;2022-09-03T06:48:55;4.43;;;1.30;;
67768;SDS011;54569;52.018;5.584;2022-09-03T06:51:22;1.58;;;1.48;;
67768;SDS011;54569;52.018;5.584;2022-09-03T06:53:51;2.08;;;1.42;;
67768;SDS011;54569;52.018;5.584;2022-09-03T06:56:19;1.52;;;1.30;;
67768;SDS011;54569;52.018;5.584;2022-09-03T06:58:50;2.92;;;1.17;;
67768;SDS011;54569;52.018;5.584;2022-09-03T07:01:22;2.95;;;1.40;;
67768;SDS011;54569;52.018;5.584;2022-09-03T07:03:54;1.60;;;1.50;;
67768;SDS011;54569;52.018;5.584;2022-09-03T07:06:21;1.23;;;1.17;;
67768;SDS011;54569;52.018;5.584;2022-09-03T07:08:48;3.47;;;1.35;;
67768;SDS011;54569;52.018;5.584;2022-09-03T07:11:15;4.43;;;1.63;;
67768;SDS011;54569;52.018;5.584;2022-09-03T07:13:47;4.57;;;1.50;;
67768;SDS011;54569;52.018;5.584;2022-09-03T07:16:21;2.05;;;1.17;;
67768;SDS011;54569;52.018;5.584;2022-09-03T07:18:49;2.67;;;1.10;;
67768;SDS011;54569;52.018;5.584;2022-09-03T07:21:16;2.75;;;1.40;;
67768;SDS011;54569;52.018;5.584;2022-09-03T07:23:50;5.80;;;1.50;;
67768;SDS011;54569;52.018;5.584;2022-09-03T07:26:21;2.35;;;1.42;;
67768;SDS011;54569;52.018;5.584;2022-09-03T07:28:49;3.47;;;1.70;;
67768;SDS011;54569;52.018;5.584;2022-09-03T07:31:16;3.45;;;1.50;;
67768;SDS011;54569;52.018;5.584;2022-09-03T07:33:45;2.17;;;1.25;;
67768;SDS011;54569;52.018;5.584;2022-09-03T07:36:12;4.47;;;1.27;;
67768;SDS011;54569;52.018;5.584;2022-09-03T07:38:40;7.95;;;1.48;;
67768;SDS011;54569;52.018;5.584;2022-09-03T07:41:08;5.30;;;1.52;;
67768;SDS011;54569;52.018;5.584;2022-09-03T07:43:36;3.75;;;1.35;;
67768;SDS011;54569;52.018;5.584;2022-09-03T07:46:07;2.67;;;1.23;;
67768;SDS011;54569;52.018;5.584;2022-09-03T07:48:37;1.95;;;1.40;;
67768;SDS011;54569;52.018;5.584;2022-09-03T07:51:04;5.20;;;1.50;;
67768;SDS011;54569;52.018;5.584;2022-09-03T07:53:31;1.98;;;1.40;;
67768;SDS011;54569;52.018;5.584;2022-09-03T07:56:04;2.30;;;1.40;;
67768;SDS011;54569;52.018;5.584;2022-09-03T07:58:32;2.90;;;1.63;;
67768;SDS011;54569;52.018;5.584;2022-09-03T08:01:03;4.47;;;1.75;;
67768;SDS011;54569;52.018;5.584;2022-09-03T08:03:33;2.55;;;1.40;;
67768;SDS011;54569;52.018;5.584;2022-09-03T08:06:00;3.05;;;1.40;;
67768;SDS011;54569;52.018;5.584;2022-09-03T08:08:27;3.15;;;1.20;;
67768;SDS011;54569;52.018;5.584;2022-09-03T08:10:53;1.60;;;1.50;;
67768;SDS011;54569;52.018;5.584;2022-09-03T08:13:19;1.42;;;1.13;;
67768;SDS011;54569;52.018;5.584;2022-09-03T08:15:54;2.70;;;1.48;;
67768;SDS011;54569;52.018;5.584;2022-09-03T08:18:20;3.08;;;1.38;;
67768;SDS011;54569;52.018;5.584;2022-09-03T08:20:47;2.55;;;1.20;;
67768;SDS011;54569;52.018;5.584;2022-09-03T08:23:12;3.58;;;1.60;;
67768;SDS011;54569;52.018;5.584;2022-09-03T08:25:39;3.00;;;1.50;;
67768;SDS011;54569;52.018;5.584;2022-09-03T08:28:05;2.65;;;1.50;;
67768;SDS011;54569;52.018;5.584;2022-09-03T08:30:30;2.75;;;1.30;;
67768;SDS011;54569;52.018;5.584;2022-09-03T08:32:56;3.25;;;1.30;;
67768;SDS011;54569;52.018;5.584;2022-09-03T08:35:25;2.25;;;1.13;;
67768;SDS011;54569;52.018;5.584;2022-09-03T08:37:50;3.65;;;1.42;;
67768;SDS011;54569;52.018;5.584;2022-09-03T08:40:18;2.78;;;1.50;;
67768;SDS011;54569;52.018;5.584;2022-09-03T08:42:52;1.40;;;1.23;;
67768;SDS011;54569;52.018;5.584;2022-09-03T08:45:30;2.50;;;1.27;;
67768;SDS011;54569;52.018;5.584;2022-09-03T08:48:05;3.45;;;1.50;;
67768;SDS011;54569;52.018;5.584;2022-09-03T08:50:36;2.22;;;1.40;;
67768;SDS011;54569;52.018;5.584;2022-09-03T08:53:23;1.23;;;1.13;;
67768;SDS011;54569;52.018;5.584;2022-09-03T08:56:03;1.92;;;1.10;;
67768;SDS011;54569;52.018;5.584;2022-09-03T08:58:33;1.88;;;1.15;;
67768;SDS011;54569;52.018;5.584;2022-09-03T09:06:20;3.30;;;1.33;;
67768;SDS011;54569;52.018;5.584;2022-09-03T09:09:05;2.40;;;1.10;;
67768;SDS011;54569;52.018;5.584;2022-09-03T09:12:17;1.85;;;1.17;;
67768;SDS011;54569;52.018;5.584;2022-09-03T09:14:34;2.88;;;1.30;;
67768;SDS011;54569;52.018;5.584;2022-09-03T09:17:13;2.40;;;1.20;;
67768;SDS011;54569;52.018;5.584;2022-09-03T09:23:05;4.93;;;1.45;;
67768;SDS011;54569;52.018;5.584;2022-09-03T09:25:33;1.90;;;0.90;;
67768;SDS011;54569;52.018;5.584;2022-09-03T09:28:09;2.78;;;1.10;;
67768;SDS011;54569;52.018;5.584;2022-09-03T09:30:48;2.45;;;1.33;;
67768;SDS011;54569;52.018;5.584;2022-09-03T09:33:16;4.18;;;1.27;;
67768;SDS011;54569;52.018;5.584;2022-09-03T09:35:44;1.65;;;0.88;;
67768;SDS011;54569;52.018;5.584;2022-09-03T09:38:11;2.72;;;1.02;;
67768;SDS011;54569;52.018;5.584;2022-09-03T09:40:39;1.35;;;0.93;;
67768;SDS011;54569;52.018;5.584;2022-09-03T09:43:10;2.35;;;1.13;;
67768;SDS011;54569;52.018;5.584;2022-09-03T09:45:40;2.50;;;1.05;;
67768;SDS011;54569;52.018;5.584;2022-09-03T09:48:33;3.63;;;1.35;;
67768;SDS011;54569;52.018;5.584;2022-09-03T09:51:16;2.45;;;1.05;;
67768;SDS011;54569;52.018;5.584;2022-09-03T09:53:59;3.58;;;1.00;;
67768;SDS011;54569;52.018;5.584;2022-09-03T09:56:28;3.17;;;1.10;;
67768;SDS011;54569;52.018;5.584;2022-09-03T09:59:06;1.75;;;0.90;;
67768;SDS011;54569;52.018;5.584;2022-09-03T10:01:40;3.90;;;1.20;;
67768;SDS011;54569;52.018;5.584;2022-09-03T10:04:12;2.90;;;0.90;;
67768;SDS011;54569;52.018;5.584;2022-09-03T10:06:59;2.28;;;0.88;;
67768;SDS011;54569;52.018;5.584;2022-09-03T10:09:30;3.13;;;0.93;;
67768;SDS011;54569;52.018;5.584;2022-09-03T10:14:55;1.58;;;0.82;;
67768;SDS011;54569;52.018;5.584;2022-09-03T10:20:03;1.48;;;0.90;;
67768;SDS011;54569;52.018;5.584;2022-09-03T10:25:20;3.55;;;1.05;;
67768;SDS011;54569;52.018;5.584;2022-09-03T10:27:51;2.92;;;1.02;;
67768;SDS011;54569;52.018;5.584;2022-09-03T10:30:18;2.95;;;1.00;;
67768;SDS011;54569;52.018;5.584;2022-09-03T10:35:26;2.78;;;1.00;;
67768;SDS011;54569;52.018;5.584;2022-09-03T10:38:09;1.67;;;0.95;;
67768;SDS011;54569;52.018;5.584;2022-09-03T10:46:35;1.92;;;0.95;;
67768;SDS011;54569;52.018;5.584;2022-09-03T11:02:46;2.88;;;0.93;;
67768;SDS011;54569;52.018;5.584;2022-09-03T11:10:59;2.17;;;1.20;;
67768;SDS011;54569;52.018;5.584;2022-09-03T11:13:43;2.10;;;1.00;;
67768;SDS011;54569;52.018;5.584;2022-09-03T11:19:45;3.42;;;1.10;;
67768;SDS011;54569;52.018;5.584;2022-09-03T11:21:41;1.55;;;1.00;;
67768;SDS011;54569;52.018;5.584;2022-09-03T11:24:12;1.45;;;0.80;;
67768;SDS011;54569;52.018;5.584;2022-09-03T11:26:44;3.30;;;1.13;;
67768;SDS011;54569;52.018;5.584;2022-09-03T11:32:21;1.33;;;0.95;;
67768;SDS011;54569;52.018;5.584;2022-09-03T11:34:53;3.00;;;1.05;;
67768;SDS011;54569;52.018;5.584;2022-09-03T11:37:23;2.22;;;1.17;;
67768;SDS011;54569;52.018;5.584;2022-09-03T11:42:38;1.60;;;0.70;;
67768;SDS011;54569;52.018;5.584;2022-09-03T11:47:54;2.30;;;1.10;;
67768;SDS011;54569;52.018;5.584;2022-09-03T11:52:49;2.67;;;1.00;;
67768;SDS011;54569;52.018;5.584;2022-09-03T11:55:51;2.28;;;0.90;;
67768;SDS011;54569;52.018;5.584;2022-09-03T12:01:56;2.88;;;1.00;;
67768;SDS011;54569;52.018;5.584;2022-09-03T12:10:16;3.53;;;1.10;;
67768;SDS011;54569;52.018;5.584;2022-09-03T12:15:54;3.28;;;1.00;;
67768;SDS011;54569;52.018;5.584;2022-09-03T12:18:47;2.33;;;1.00;;
67768;SDS011;54569;52.018;5.584;2022-09-03T12:21:17;1.10;;;0.90;;
67768;SDS011;54569;52.018;5.584;2022-09-03T12:23:45;3.13;;;1.60;;
67768;SDS011;54569;52.018;5.584;2022-09-03T12:26:20;2.92;;;1.02;;
67768;SDS011;54569;52.018;5.584;2022-09-03T12:28:52;2.35;;;1.15;;
67768;SDS011;54569;52.018;5.584;2022-09-03T12:31:24;4.10;;;1.27;;
67768;SDS011;54569;52.018;5.584;2022-09-03T12:33:58;3.40;;;1.02;;
67768;SDS011;54569;52.018;5.584;2022-09-03T12:36:35;5.15;;;1.50;;
67768;SDS011;54569;52.018;5.584;2022-09-03T12:39:08;4.07;;;1.38;;
67768;SDS011;54569;52.018;5.584;2022-09-03T12:44:31;3.97;;;1.20;;
67768;SDS011;54569;52.018;5.584;2022-09-03T12:47:12;5.88;;;1.38;;
67768;SDS011;54569;52.018;5.584;2022-09-03T12:49:42;2.53;;;1.20;;
67768;SDS011;54569;52.018;5.584;2022-09-03T12:54:58;1.95;;;1.23;;
67768;SDS011;54569;52.018;5.584;2022-09-03T12:57:35;3.40;;;1.50;;
67768;SDS011;54569;52.018;5.584;2022-09-03T13:00:08;1.10;;;1.00;;
67768;SDS011;54569;52.018;5.584;2022-09-03T13:02:52;3.13;;;1.30;;
67768;SDS011;54569;52.018;5.584;2022-09-03T13:05:44;1.50;;;1.40;;
67768;SDS011;54569;52.018;5.584;2022-09-03T13:08:19;6.35;;;1.50;;
67768;SDS011;54569;52.018;5.584;2022-09-03T13:10:49;2.95;;;1.50;;
67768;SDS011;54569;52.018;5.584;2022-09-03T13:13:20;2.80;;;1.33;;
67768;SDS011;54569;52.018;5.584;2022-09-03T13:26:56;3.30;;;1.52;;
67768;SDS011;54569;52.018;5.584;2022-09-03T13:34:53;4.40;;;1.67;;
67768;SDS011;54569;52.018;5.584;2022-09-03T13:37:44;3.78;;;1.50;;
67768;SDS011;54569;52.018;5.584;2022-09-03T13:40:51;1.65;;;1.55;;
67768;SDS011;54569;52.018;5.584;2022-09-03T13:43:42;1.83;;;1.52;;
67768;SDS011;54569;52.018;5.584;2022-09-03T13:46:16;2.58;;;1.30;;
67768;SDS011;54569;52.018;5.584;2022-09-03T14:00:36;1.88;;;1.70;;
67768;SDS011;54569;52.018;5.584;2022-09-03T14:03:11;2.45;;;1.60;;
67768;SDS011;54569;52.018;5.584;2022-09-03T14:17:05;2.55;;;1.40;;
67768;SDS011;54569;52.018;5.584;2022-09-03T14:19:36;2.25;;;1.50;;
67768;SDS011;54569;52.018;5.584;2022-09-03T14:22:20;2.92;;;1.80;;
67768;SDS011;54569;52.018;5.584;2022-09-03T14:27:31;3.40;;;2.15;;
67768;SDS011;54569;52.018;5.584;2022-09-03T14:30:03;3.45;;;1.77;;
67768;SDS011;54569;52.018;5.584;2022-09-03T14:35:41;1.88;;;1.60;;
67768;SDS011;54569;52.018;5.584;2022-09-03T14:41:03;3.83;;;1.60;;
67768;SDS011;54569;52.018;5.584;2022-09-03T15:00:16;1.60;;;1.50;;
67768;SDS011;54569;52.018;5.584;2022-09-03T15:05:49;2.58;;;1.65;;
67768;SDS011;54569;52.018;5.584;2022-09-03T15:11:09;3.15;;;1.92;;
67768;SDS011;54569;52.018;5.584;2022-09-03T15:13:50;8.23;;;2.10;;
67768;SDS011;54569;52.018;5.584;2022-09-03T15:16:30;5.20;;;2.08;;
67768;SDS011;54569;52.018;5.584;2022-09-03T15:33:15;1.77;;;1.67;;
67768;SDS011;54569;52.018;5.584;2022-09-03T15:35:59;4.77;;;2.00;;
67768;SDS011;54569;52.018;5.584;2022-09-03T15:41:30;5.15;;;1.73;;
67768;SDS011;54569;52.018;5.584;2022-09-03T15:44:21;2.65;;;1.88;;
67768;SDS011;54569;52.018;5.584;2022-09-03T15:52:24;5.60;;;2.50;;
67768;SDS011;54569;52.018;5.584;2022-09-03T15:55:08;3.20;;;1.98;;
67768;SDS011;54569;52.018;5.584;2022-09-03T15:57:39;2.30;;;2.00;;
67768;SDS011;54569;52.018;5.584;2022-09-03T16:00:18;2.65;;;1.67;;
67768;SDS011;54569;52.018;5.584;2022-09-03T16:02:46;2.10;;;1.90;;
67768;SDS011;54569;52.018;5.584;2022-09-03T16:05:27;4.43;;;1.70;;
67768;SDS011;54569;52.018;5.584;2022-09-03T16:11:14;2.58;;;1.83;;
67768;SDS011;54569;52.018;5.584;2022-09-03T16:13:55;2.92;;;2.00;;
67768;SDS011;54569;52.018;5.584;2022-09-03T16:16:23;2.30;;;2.10;;
67768;SDS011;54569;52.018;5.584;2022-09-03T16:30:27;2.38;;;2.17;;
67768;SDS011;54569;52.018;5.584;2022-09-03T16:38:44;3.80;;;2.22;;
67768;SDS011;54569;52.018;5.584;2022-09-03T16:46:53;3.30;;;1.48;;
67768;SDS011;54569;52.018;5.584;2022-09-03T16:49:43;5.57;;;1.80;;
67768;SDS011;54569;52.018;5.584;2022-09-03T16:52:37;2.10;;;1.90;;
67768;SDS011;54569;52.018;5.584;2022-09-03T16:55:34;2.83;;;2.25;;
67768;SDS011;54569;52.018;5.584;2022-09-03T16:58:14;2.60;;;2.15;;
67768;SDS011;54569;52.018;5.584;2022-09-03T17:04:05;3.30;;;1.92;;
67768;SDS011;54569;52.018;5.584;2022-09-03T17:06:46;3.63;;;2.13;;
67768;SDS011;54569;52.018;5.584;2022-09-03T17:12:30;2.53;;;2.03;;
67768;SDS011;54569;52.018;5.584;2022-09-03T17:17:54;4.30;;;2.33;;
67768;SDS011;54569;52.018;5.584;2022-09-03T17:23:18;4.72;;;2.67;;
67768;SDS011;54569;52.018;5.584;2022-09-03T17:26:17;6.30;;;2.20;;
67768;SDS011;54569;52.018;5.584;2022-09-03T17:29:12;3.25;;;2.90;;
67768;SDS011;54569;52.018;5.584;2022-09-03T17:32:07;5.97;;;3.15;;
67768;SDS011;54569;52.018;5.584;2022-09-03T17:34:58;3.67;;;2.53;;
67768;SDS011;54569;52.018;5.584;2022-09-03T17:48:41;6.45;;;2.60;;
67768;SDS011;54569;52.018;5.584;2022-09-03T17:56:51;7.28;;;2.40;;
67768;SDS011;54569;52.018;5.584;2022-09-03T18:02:03;3.50;;;3.20;;
67768;SDS011;54569;52.018;5.584;2022-09-03T18:04:42;6.35;;;2.30;;
67768;SDS011;54569;52.018;5.584;2022-09-03T18:07:25;6.55;;;3.10;;
67768;SDS011;54569;52.018;5.584;2022-09-03T18:12:46;4.00;;;3.47;;
67768;SDS011;54569;52.018;5.584;2022-09-03T18:15:26;5.50;;;2.85;;
67768;SDS011;54569;52.018;5.584;2022-09-03T18:18:15;4.68;;;3.30;;
67768;SDS011;54569;52.018;5.584;2022-09-03T18:20:54;5.43;;;3.15;;
67768;SDS011;54569;52.018;5.584;2022-09-03T18:23:46;2.78;;;2.42;;
67768;SDS011;54569;52.018;5.584;2022-09-03T18:26:35;5.95;;;3.00;;
67768;SDS011;54569;52.018;5.584;2022-09-03T18:32:36;5.28;;;3.70;;
67768;SDS011;54569;52.018;5.584;2022-09-03T18:35:21;7.50;;;5.13;;
67768;SDS011;54569;52.018;5.584;2022-09-03T18:38:09;6.10;;;4.25;;
67768;SDS011;54569;52.018;5.584;2022-09-03T18:40:55;10.50;;;4.47;;
67768;SDS011;54569;52.018;5.584;2022-09-03T18:44:01;7.53;;;3.80;;
67768;SDS011;54569;52.018;5.584;2022-09-03T18:47:01;7.18;;;3.55;;
67768;SDS011;54569;52.018;5.584;2022-09-03T18:50:03;4.30;;;3.85;;
67768;SDS011;54569;52.018;5.584;2022-09-03T19:02:06;5.75;;;4.32;;
67768;SDS011;54569;52.018;5.584;2022-09-03T19:05:16;6.95;;;4.70;;
67768;SDS011;54569;52.018;5.584;2022-09-03T19:08:28;5.88;;;4.22;;
67768;SDS011;54569;52.018;5.584;2022-09-03T19:11:34;5.32;;;4.28;;
67768;SDS011;54569;52.018;5.584;2022-09-03T19:20:20;8.60;;;4.68;;
67768;SDS011;54569;52.018;5.584;2022-09-03T19:23:11;6.10;;;4.50;;
67768;SDS011;54569;52.018;5.584;2022-09-03T19:25:57;7.47;;;4.40;;
67768;SDS011;54569;52.018;5.584;2022-09-03T19:29:08;8.43;;;4.70;;
67768;SDS011;54569;52.018;5.584;2022-09-03T19:32:15;6.22;;;4.18;;
67768;SDS011;54569;52.018;5.584;2022-09-03T19:35:10;7.88;;;3.80;;
67768;SDS011;54569;52.018;5.584;2022-09-03T19:46:59;5.10;;;3.58;;
67768;SDS011;54569;52.018;5.584;2022-09-03T19:53:07;8.23;;;5.30;;
67768;SDS011;54569;52.018;5.584;2022-09-03T19:55:56;6.55;;;5.47;;
67768;SDS011;54569;52.018;5.584;2022-09-03T19:59:00;8.00;;;5.30;;
67768;SDS011;54569;52.018;5.584;2022-09-03T20:01:50;8.43;;;4.75;;
67768;SDS011;54569;52.018;5.584;2022-09-03T20:04:40;5.35;;;3.90;;
67768;SDS011;54569;52.018;5.584;2022-09-03T20:07:40;5.10;;;3.92;;
67768;SDS011;54569;52.018;5.584;2022-09-03T20:10:24;4.60;;;3.65;;
67768;SDS011;54569;52.018;5.584;2022-09-03T20:15:25;6.22;;;4.20;;
67768;SDS011;54569;52.018;5.584;2022-09-03T20:18:14;4.13;;;3.70;;
67768;SDS011;54569;52.018;5.584;2022-09-03T20:36:56;8.25;;;6.20;;
67768;SDS011;54569;52.018;5.584;2022-09-03T20:52:00;8.48;;;7.72;;
67768;SDS011;54569;52.018;5.584;2022-09-03T20:54:33;8.73;;;7.68;;
67768;SDS011;54569;52.018;5.584;2022-09-03T21:00:00;8.75;;;7.60;;
67768;SDS011;54569;52.018;5.584;2022-09-03T21:09:04;9.63;;;5.35;;
67768;SDS011;54569;52.018;5.584;2022-09-03T21:11:06;6.18;;;4.82;;
67768;SDS011;54569;52.018;5.584;2022-09-03T21:17:04;8.60;;;7.72;;
67768;SDS011;54569;52.018;5.584;2022-09-03T21:25:29;9.68;;;8.82;;
67768;SDS011;54569;52.018;5.584;2022-09-03T21:31:01;20.30;;;15.50;;